Millville, Iowa
Current Conditions -  °F | °C
As of 10:35 AM on Tuesday 21 Oct 2014 (Local Time) from KPDC Reporting Station
Clear Clear  
Wind Chill: 44°   Ceiling: Unl
Heat Index: 47°   Visibility: 10mi
Dew Point: 38°   Wind: 6mph
Humidity: 71%   Direction: 110°ESE
Pressure: 30.23"   Gusts: NA
Location:  42.743°N, 91.1647°W
Report Text: KPDC 211535Z AUTO 11005KT 10SM CLR 08/03 A3023 RMK AO2 T00840034
Loading
Personal Weather Stations






























Interactive Weather Map
Tropical Storm Tracking
New forecast layout! Learn more

10-Day Weather Forecast

Advertisements
Track Severe Weather on mobile